sensor_id;sensor_type;location;lat;lon;timestamp;P1;durP1;ratioP1;P2;durP2;ratioP2
33279;SDS011;20403;43.114;12.434;2023-06-14T00:02:09;11.90;;;2.35;;
33279;SDS011;20403;43.114;12.434;2023-06-14T00:04:34;10.73;;;2.47;;
33279;SDS011;20403;43.114;12.434;2023-06-14T00:07:00;7.90;;;2.38;;
33279;SDS011;20403;43.114;12.434;2023-06-14T00:09:25;9.60;;;2.55;;
33279;SDS011;20403;43.114;12.434;2023-06-14T00:11:52;4.35;;;1.95;;
33279;SDS011;20403;43.114;12.434;2023-06-14T00:14:17;5.45;;;2.20;;
33279;SDS011;20403;43.114;12.434;2023-06-14T00:16:43;5.15;;;1.80;;
33279;SDS011;20403;43.114;12.434;2023-06-14T00:19:09;6.82;;;2.63;;
33279;SDS011;20403;43.114;12.434;2023-06-14T00:21:35;7.82;;;2.85;;
33279;SDS011;20403;43.114;12.434;2023-06-14T00:24:01;8.18;;;2.38;;
33279;SDS011;20403;43.114;12.434;2023-06-14T00:26:27;6.70;;;2.75;;
33279;SDS011;20403;43.114;12.434;2023-06-14T00:28:53;10.10;;;3.17;;
33279;SDS011;20403;43.114;12.434;2023-06-14T00:31:24;5.63;;;2.38;;
33279;SDS011;20403;43.114;12.434;2023-06-14T00:33:49;5.32;;;2.47;;
33279;SDS011;20403;43.114;12.434;2023-06-14T00:36:15;3.83;;;2.60;;
33279;SDS011;20403;43.114;12.434;2023-06-14T00:38:40;10.32;;;2.67;;
33279;SDS011;20403;43.114;12.434;2023-06-14T00:41:05;5.88;;;2.17;;
33279;SDS011;20403;43.114;12.434;2023-06-14T00:43:31;5.63;;;2.45;;
33279;SDS011;20403;43.114;12.434;2023-06-14T00:45:56;7.13;;;2.13;;
33279;SDS011;20403;43.114;12.434;2023-06-14T00:48:22;5.70;;;2.05;;
33279;SDS011;20403;43.114;12.434;2023-06-14T00:50:49;7.03;;;2.25;;
33279;SDS011;20403;43.114;12.434;2023-06-14T00:53:17;3.88;;;2.50;;
33279;SDS011;20403;43.114;12.434;2023-06-14T00:55:45;7.38;;;2.33;;
33279;SDS011;20403;43.114;12.434;2023-06-14T00:58:13;10.30;;;2.63;;
33279;SDS011;20403;43.114;12.434;2023-06-14T01:00:39;6.80;;;2.28;;
33279;SDS011;20403;43.114;12.434;2023-06-14T01:03:05;7.78;;;2.70;;
33279;SDS011;20403;43.114;12.434;2023-06-14T01:05:30;4.80;;;2.88;;
33279;SDS011;20403;43.114;12.434;2023-06-14T01:10:56;10.48;;;2.58;;
33279;SDS011;20403;43.114;12.434;2023-06-14T01:16:02;4.78;;;2.85;;
33279;SDS011;20403;43.114;12.434;2023-06-14T01:18:28;11.85;;;2.92;;
33279;SDS011;20403;43.114;12.434;2023-06-14T01:20:54;8.60;;;3.05;;
33279;SDS011;20403;43.114;12.434;2023-06-14T01:23:20;12.55;;;2.80;;
33279;SDS011;20403;43.114;12.434;2023-06-14T01:25:47;6.97;;;3.08;;
33279;SDS011;20403;43.114;12.434;2023-06-14T01:28:17;9.98;;;2.90;;
33279;SDS011;20403;43.114;12.434;2023-06-14T01:30:46;7.72;;;2.70;;
33279;SDS011;20403;43.114;12.434;2023-06-14T01:33:19;4.72;;;2.95;;
33279;SDS011;20403;43.114;12.434;2023-06-14T01:35:52;6.10;;;3.20;;
33279;SDS011;20403;43.114;12.434;2023-06-14T01:38:19;10.98;;;2.85;;
33279;SDS011;20403;43.114;12.434;2023-06-14T01:40:46;8.57;;;3.45;;
33279;SDS011;20403;43.114;12.434;2023-06-14T01:43:13;9.65;;;2.80;;
33279;SDS011;20403;43.114;12.434;2023-06-14T01:45:41;5.75;;;3.00;;
33279;SDS011;20403;43.114;12.434;2023-06-14T01:48:07;14.02;;;4.15;;
33279;SDS011;20403;43.114;12.434;2023-06-14T01:50:33;11.25;;;3.72;;
33279;SDS011;20403;43.114;12.434;2023-06-14T01:52:59;10.43;;;4.22;;
33279;SDS011;20403;43.114;12.434;2023-06-14T01:55:24;7.68;;;3.45;;
33279;SDS011;20403;43.114;12.434;2023-06-14T01:57:50;10.75;;;3.40;;
33279;SDS011;20403;43.114;12.434;2023-06-14T02:00:16;8.85;;;3.15;;
33279;SDS011;20403;43.114;12.434;2023-06-14T02:02:43;10.23;;;2.83;;
33279;SDS011;20403;43.114;12.434;2023-06-14T02:05:09;7.68;;;3.35;;
33279;SDS011;20403;43.114;12.434;2023-06-14T02:07:35;8.05;;;3.63;;
33279;SDS011;20403;43.114;12.434;2023-06-14T02:10:01;6.00;;;3.05;;
33279;SDS011;20403;43.114;12.434;2023-06-14T02:12:26;9.32;;;3.03;;
33279;SDS011;20403;43.114;12.434;2023-06-14T02:14:52;11.38;;;3.55;;
33279;SDS011;20403;43.114;12.434;2023-06-14T02:17:17;8.80;;;3.05;;
33279;SDS011;20403;43.114;12.434;2023-06-14T02:19:43;9.35;;;3.00;;
33279;SDS011;20403;43.114;12.434;2023-06-14T02:22:08;12.55;;;3.72;;
33279;SDS011;20403;43.114;12.434;2023-06-14T02:24:34;9.00;;;2.80;;
33279;SDS011;20403;43.114;12.434;2023-06-14T02:27:01;6.57;;;2.97;;
33279;SDS011;20403;43.114;12.434;2023-06-14T02:29:26;8.45;;;2.80;;
33279;SDS011;20403;43.114;12.434;2023-06-14T02:31:52;9.07;;;2.80;;
33279;SDS011;20403;43.114;12.434;2023-06-14T02:34:17;6.07;;;2.58;;
33279;SDS011;20403;43.114;12.434;2023-06-14T02:36:44;7.05;;;2.42;;
33279;SDS011;20403;43.114;12.434;2023-06-14T02:39:10;11.20;;;3.65;;
33279;SDS011;20403;43.114;12.434;2023-06-14T02:41:36;6.70;;;2.83;;
33279;SDS011;20403;43.114;12.434;2023-06-14T02:44:01;6.47;;;2.78;;
33279;SDS011;20403;43.114;12.434;2023-06-14T02:46:27;10.13;;;3.00;;
33279;SDS011;20403;43.114;12.434;2023-06-14T02:48:52;5.97;;;2.60;;
33279;SDS011;20403;43.114;12.434;2023-06-14T02:51:18;4.85;;;2.17;;
33279;SDS011;20403;43.114;12.434;2023-06-14T02:53:43;6.57;;;2.88;;
33279;SDS011;20403;43.114;12.434;2023-06-14T02:56:09;6.13;;;2.33;;
33279;SDS011;20403;43.114;12.434;2023-06-14T02:58:36;4.47;;;2.47;;
33279;SDS011;20403;43.114;12.434;2023-06-14T03:01:01;3.55;;;2.15;;
33279;SDS011;20403;43.114;12.434;2023-06-14T03:03:28;4.20;;;2.00;;
33279;SDS011;20403;43.114;12.434;2023-06-14T03:05:54;5.70;;;2.22;;
33279;SDS011;20403;43.114;12.434;2023-06-14T03:08:21;4.40;;;2.13;;
33279;SDS011;20403;43.114;12.434;2023-06-14T03:10:52;2.55;;;2.13;;
33279;SDS011;20403;43.114;12.434;2023-06-14T03:13:18;5.25;;;2.10;;
33279;SDS011;20403;43.114;12.434;2023-06-14T03:15:46;4.72;;;2.20;;
33279;SDS011;20403;43.114;12.434;2023-06-14T03:18:12;6.68;;;2.67;;
33279;SDS011;20403;43.114;12.434;2023-06-14T03:20:39;5.22;;;2.50;;
33279;SDS011;20403;43.114;12.434;2023-06-14T03:23:06;3.60;;;2.05;;
33279;SDS011;20403;43.114;12.434;2023-06-14T03:25:31;3.55;;;2.28;;
33279;SDS011;20403;43.114;12.434;2023-06-14T03:28:00;5.35;;;1.90;;
33279;SDS011;20403;43.114;12.434;2023-06-14T03:30:26;3.10;;;1.83;;
33279;SDS011;20403;43.114;12.434;2023-06-14T03:32:51;3.53;;;1.80;;
33279;SDS011;20403;43.114;12.434;2023-06-14T03:35:17;6.95;;;2.20;;
33279;SDS011;20403;43.114;12.434;2023-06-14T03:37:44;6.05;;;2.00;;
33279;SDS011;20403;43.114;12.434;2023-06-14T03:40:11;9.27;;;2.22;;
33279;SDS011;20403;43.114;12.434;2023-06-14T03:42:37;5.97;;;1.90;;
33279;SDS011;20403;43.114;12.434;2023-06-14T03:45:03;3.55;;;1.90;;
33279;SDS011;20403;43.114;12.434;2023-06-14T03:47:29;8.38;;;1.95;;
33279;SDS011;20403;43.114;12.434;2023-06-14T03:49:54;6.50;;;2.20;;
33279;SDS011;20403;43.114;12.434;2023-06-14T03:52:20;3.05;;;2.00;;
33279;SDS011;20403;43.114;12.434;2023-06-14T03:54:47;3.83;;;2.20;;
33279;SDS011;20403;43.114;12.434;2023-06-14T03:57:12;2.08;;;1.85;;
33279;SDS011;20403;43.114;12.434;2023-06-14T03:59:38;6.18;;;2.05;;
33279;SDS011;20403;43.114;12.434;2023-06-14T04:02:03;6.03;;;1.77;;
33279;SDS011;20403;43.114;12.434;2023-06-14T04:04:29;3.05;;;1.60;;
33279;SDS011;20403;43.114;12.434;2023-06-14T04:06:55;4.57;;;1.80;;
33279;SDS011;20403;43.114;12.434;2023-06-14T04:09:22;2.47;;;1.75;;
33279;SDS011;20403;43.114;12.434;2023-06-14T04:11:49;2.70;;;1.92;;
33279;SDS011;20403;43.114;12.434;2023-06-14T04:14:15;6.68;;;1.92;;
33279;SDS011;20403;43.114;12.434;2023-06-14T04:16:40;5.03;;;2.30;;
33279;SDS011;20403;43.114;12.434;2023-06-14T04:19:06;5.05;;;2.03;;
33279;SDS011;20403;43.114;12.434;2023-06-14T04:21:31;4.53;;;1.98;;
33279;SDS011;20403;43.114;12.434;2023-06-14T04:23:59;3.95;;;2.03;;
33279;SDS011;20403;43.114;12.434;2023-06-14T04:26:27;3.33;;;2.10;;
33279;SDS011;20403;43.114;12.434;2023-06-14T04:28:58;5.40;;;1.92;;
33279;SDS011;20403;43.114;12.434;2023-06-14T04:31:27;6.65;;;2.10;;
33279;SDS011;20403;43.114;12.434;2023-06-14T04:33:58;4.00;;;1.73;;
33279;SDS011;20403;43.114;12.434;2023-06-14T04:36:24;7.80;;;2.20;;
33279;SDS011;20403;43.114;12.434;2023-06-14T04:38:53;7.10;;;2.17;;
33279;SDS011;20403;43.114;12.434;2023-06-14T04:41:20;3.85;;;1.83;;
33279;SDS011;20403;43.114;12.434;2023-06-14T04:43:48;6.43;;;2.20;;
33279;SDS011;20403;43.114;12.434;2023-06-14T04:46:14;2.92;;;2.00;;
33279;SDS011;20403;43.114;12.434;2023-06-14T04:48:40;6.63;;;1.80;;
33279;SDS011;20403;43.114;12.434;2023-06-14T04:51:10;6.35;;;1.85;;
33279;SDS011;20403;43.114;12.434;2023-06-14T04:53:35;5.28;;;1.88;;
33279;SDS011;20403;43.114;12.434;2023-06-14T04:56:01;9.23;;;2.50;;
33279;SDS011;20403;43.114;12.434;2023-06-14T04:58:27;6.97;;;2.40;;
33279;SDS011;20403;43.114;12.434;2023-06-14T05:00:53;7.55;;;2.10;;
33279;SDS011;20403;43.114;12.434;2023-06-14T05:03:21;2.40;;;1.83;;
33279;SDS011;20403;43.114;12.434;2023-06-14T05:05:46;3.65;;;1.90;;
33279;SDS011;20403;43.114;12.434;2023-06-14T05:08:12;7.32;;;2.15;;
33279;SDS011;20403;43.114;12.434;2023-06-14T05:10:37;5.53;;;2.03;;
33279;SDS011;20403;43.114;12.434;2023-06-14T05:13:03;3.97;;;1.60;;
33279;SDS011;20403;43.114;12.434;2023-06-14T05:15:28;7.13;;;2.55;;
33279;SDS011;20403;43.114;12.434;2023-06-14T05:17:54;5.68;;;2.50;;
33279;SDS011;20403;43.114;12.434;2023-06-14T05:20:23;8.82;;;2.65;;
33279;SDS011;20403;43.114;12.434;2023-06-14T05:22:52;6.60;;;1.92;;
33279;SDS011;20403;43.114;12.434;2023-06-14T05:25:19;4.07;;;2.10;;
33279;SDS011;20403;43.114;12.434;2023-06-14T05:27:46;2.10;;;1.88;;
33279;SDS011;20403;43.114;12.434;2023-06-14T05:30:12;6.57;;;3.00;;
33279;SDS011;20403;43.114;12.434;2023-06-14T05:32:38;3.80;;;2.97;;
33279;SDS011;20403;43.114;12.434;2023-06-14T05:35:04;4.00;;;1.77;;
33279;SDS011;20403;43.114;12.434;2023-06-14T05:37:30;6.75;;;2.53;;
33279;SDS011;20403;43.114;12.434;2023-06-14T05:39:56;6.78;;;2.13;;
33279;SDS011;20403;43.114;12.434;2023-06-14T05:42:21;4.00;;;2.30;;
33279;SDS011;20403;43.114;12.434;2023-06-14T05:44:47;6.05;;;2.60;;
33279;SDS011;20403;43.114;12.434;2023-06-14T05:47:12;5.30;;;2.42;;
33279;SDS011;20403;43.114;12.434;2023-06-14T05:49:38;3.15;;;2.42;;
33279;SDS011;20403;43.114;12.434;2023-06-14T05:52:03;6.90;;;2.40;;
33279;SDS011;20403;43.114;12.434;2023-06-14T05:54:29;4.65;;;2.10;;
33279;SDS011;20403;43.114;12.434;2023-06-14T05:56:55;7.38;;;3.20;;
33279;SDS011;20403;43.114;12.434;2023-06-14T05:59:20;4.68;;;2.85;;
33279;SDS011;20403;43.114;12.434;2023-06-14T06:01:46;4.97;;;2.90;;
33279;SDS011;20403;43.114;12.434;2023-06-14T06:04:11;5.35;;;3.90;;
33279;SDS011;20403;43.114;12.434;2023-06-14T06:06:37;3.78;;;3.10;;
33279;SDS011;20403;43.114;12.434;2023-06-14T06:09:02;4.20;;;2.95;;
33279;SDS011;20403;43.114;12.434;2023-06-14T06:11:28;7.13;;;3.45;;
33279;SDS011;20403;43.114;12.434;2023-06-14T06:13:53;3.92;;;2.47;;
33279;SDS011;20403;43.114;12.434;2023-06-14T06:16:18;4.32;;;2.70;;
33279;SDS011;20403;43.114;12.434;2023-06-14T06:18:44;4.93;;;2.40;;
33279;SDS011;20403;43.114;12.434;2023-06-14T06:21:09;5.72;;;2.70;;
33279;SDS011;20403;43.114;12.434;2023-06-14T06:23:35;2.67;;;2.35;;
33279;SDS011;20403;43.114;12.434;2023-06-14T06:26:00;5.95;;;2.63;;
33279;SDS011;20403;43.114;12.434;2023-06-14T06:28:26;5.18;;;3.33;;
33279;SDS011;20403;43.114;12.434;2023-06-14T06:30:51;9.00;;;4.53;;
33279;SDS011;20403;43.114;12.434;2023-06-14T06:33:18;8.63;;;3.80;;
33279;SDS011;20403;43.114;12.434;2023-06-14T06:35:44;7.78;;;4.45;;
33279;SDS011;20403;43.114;12.434;2023-06-14T06:38:09;8.20;;;4.63;;
33279;SDS011;20403;43.114;12.434;2023-06-14T06:40:35;10.02;;;4.63;;
33279;SDS011;20403;43.114;12.434;2023-06-14T06:43:01;7.53;;;4.45;;
33279;SDS011;20403;43.114;12.434;2023-06-14T06:45:28;6.25;;;4.63;;
33279;SDS011;20403;43.114;12.434;2023-06-14T06:47:53;7.80;;;4.53;;
33279;SDS011;20403;43.114;12.434;2023-06-14T06:50:19;6.28;;;4.50;;
33279;SDS011;20403;43.114;12.434;2023-06-14T06:52:50;13.77;;;4.43;;
33279;SDS011;20403;43.114;12.434;2023-06-14T06:55:16;6.90;;;4.25;;
33279;SDS011;20403;43.114;12.434;2023-06-14T06:57:41;6.57;;;4.05;;
33279;SDS011;20403;43.114;12.434;2023-06-14T07:00:07;5.15;;;3.88;;
33279;SDS011;20403;43.114;12.434;2023-06-14T07:02:37;7.53;;;5.60;;
33279;SDS011;20403;43.114;12.434;2023-06-14T07:05:03;7.90;;;4.70;;
33279;SDS011;20403;43.114;12.434;2023-06-14T07:07:29;9.63;;;4.28;;
33279;SDS011;20403;43.114;12.434;2023-06-14T07:09:54;9.18;;;4.50;;
33279;SDS011;20403;43.114;12.434;2023-06-14T07:12:22;5.85;;;4.43;;
33279;SDS011;20403;43.114;12.434;2023-06-14T07:14:48;7.65;;;4.38;;
33279;SDS011;20403;43.114;12.434;2023-06-14T07:17:13;5.75;;;3.83;;
33279;SDS011;20403;43.114;12.434;2023-06-14T07:19:39;6.97;;;4.25;;
33279;SDS011;20403;43.114;12.434;2023-06-14T07:22:04;6.43;;;3.63;;
33279;SDS011;20403;43.114;12.434;2023-06-14T07:24:30;6.22;;;3.72;;
33279;SDS011;20403;43.114;12.434;2023-06-14T07:26:55;5.65;;;4.13;;
33279;SDS011;20403;43.114;12.434;2023-06-14T07:29:21;6.25;;;3.92;;
33279;SDS011;20403;43.114;12.434;2023-06-14T07:31:46;5.63;;;3.95;;
33279;SDS011;20403;43.114;12.434;2023-06-14T07:34:12;8.18;;;3.88;;
33279;SDS011;20403;43.114;12.434;2023-06-14T07:36:37;7.13;;;4.07;;
33279;SDS011;20403;43.114;12.434;2023-06-14T07:39:03;8.48;;;3.97;;
33279;SDS011;20403;43.114;12.434;2023-06-14T07:41:30;6.00;;;3.47;;
33279;SDS011;20403;43.114;12.434;2023-06-14T07:43:56;7.32;;;3.80;;
33279;SDS011;20403;43.114;12.434;2023-06-14T07:46:21;10.80;;;3.58;;
33279;SDS011;20403;43.114;12.434;2023-06-14T07:48:47;5.35;;;2.95;;
33279;SDS011;20403;43.114;12.434;2023-06-14T07:51:13;3.97;;;3.10;;
33279;SDS011;20403;43.114;12.434;2023-06-14T07:53:38;4.40;;;3.13;;
33279;SDS011;20403;43.114;12.434;2023-06-14T07:56:04;7.13;;;3.30;;
33279;SDS011;20403;43.114;12.434;2023-06-14T07:58:29;7.25;;;3.15;;
33279;SDS011;20403;43.114;12.434;2023-06-14T08:00:55;11.23;;;3.55;;
33279;SDS011;20403;43.114;12.434;2023-06-14T08:03:20;6.00;;;2.83;;
33279;SDS011;20403;43.114;12.434;2023-06-14T08:05:47;8.07;;;3.47;;
33279;SDS011;20403;43.114;12.434;2023-06-14T08:08:13;4.22;;;3.03;;
33279;SDS011;20403;43.114;12.434;2023-06-14T08:10:38;5.13;;;3.00;;
33279;SDS011;20403;43.114;12.434;2023-06-14T08:13:03;6.20;;;3.25;;
33279;SDS011;20403;43.114;12.434;2023-06-14T08:15:29;3.60;;;2.85;;
33279;SDS011;20403;43.114;12.434;2023-06-14T08:17:54;3.65;;;2.80;;
33279;SDS011;20403;43.114;12.434;2023-06-14T08:20:20;7.70;;;3.58;;
33279;SDS011;20403;43.114;12.434;2023-06-14T08:22:45;7.65;;;3.03;;
33279;SDS011;20403;43.114;12.434;2023-06-14T08:25:13;11.18;;;3.25;;
33279;SDS011;20403;43.114;12.434;2023-06-14T08:27:38;5.30;;;3.35;;
33279;SDS011;20403;43.114;12.434;2023-06-14T08:30:04;6.95;;;2.75;;
33279;SDS011;20403;43.114;12.434;2023-06-14T08:32:29;4.05;;;2.90;;
33279;SDS011;20403;43.114;12.434;2023-06-14T08:34:55;5.10;;;2.60;;
33279;SDS011;20403;43.114;12.434;2023-06-14T08:37:20;6.57;;;3.38;;
33279;SDS011;20403;43.114;12.434;2023-06-14T08:39:46;4.78;;;2.53;;
33279;SDS011;20403;43.114;12.434;2023-06-14T08:42:11;7.53;;;3.08;;
33279;SDS011;20403;43.114;12.434;2023-06-14T08:44:38;8.90;;;3.13;;
33279;SDS011;20403;43.114;12.434;2023-06-14T08:47:04;5.63;;;3.22;;
33279;SDS011;20403;43.114;12.434;2023-06-14T08:49:32;5.18;;;2.70;;
33279;SDS011;20403;43.114;12.434;2023-06-14T08:51:58;7.10;;;3.20;;
33279;SDS011;20403;43.114;12.434;2023-06-14T08:54:25;6.97;;;3.58;;
33279;SDS011;20403;43.114;12.434;2023-06-14T08:56:54;6.55;;;3.47;;
33279;SDS011;20403;43.114;12.434;2023-06-14T08:59:31;5.00;;;3.53;;
33279;SDS011;20403;43.114;12.434;2023-06-14T09:02:03;8.02;;;3.90;;
33279;SDS011;20403;43.114;12.434;2023-06-14T09:04:30;7.05;;;3.53;;
33279;SDS011;20403;43.114;12.434;2023-06-14T09:06:57;5.93;;;4.10;;
33279;SDS011;20403;43.114;12.434;2023-06-14T09:09:23;7.57;;;3.45;;
33279;SDS011;20403;43.114;12.434;2023-06-14T09:11:52;8.00;;;3.33;;
33279;SDS011;20403;43.114;12.434;2023-06-14T09:14:18;8.52;;;3.10;;
33279;SDS011;20403;43.114;12.434;2023-06-14T09:16:44;5.47;;;3.63;;
33279;SDS011;20403;43.114;12.434;2023-06-14T09:19:13;7.78;;;4.47;;
33279;SDS011;20403;43.114;12.434;2023-06-14T09:21:47;6.85;;;3.72;;
33279;SDS011;20403;43.114;12.434;2023-06-14T09:24:13;7.20;;;3.50;;
33279;SDS011;20403;43.114;12.434;2023-06-14T09:26:39;9.55;;;3.67;;
33279;SDS011;20403;43.114;12.434;2023-06-14T09:29:05;7.90;;;3.28;;
33279;SDS011;20403;43.114;12.434;2023-06-14T09:31:31;5.07;;;3.10;;
33279;SDS011;20403;43.114;12.434;2023-06-14T09:33:57;6.50;;;3.28;;
33279;SDS011;20403;43.114;12.434;2023-06-14T09:36:24;5.22;;;2.70;;
33279;SDS011;20403;43.114;12.434;2023-06-14T09:39:00;5.20;;;2.80;;
33279;SDS011;20403;43.114;12.434;2023-06-14T09:41:34;7.53;;;3.10;;
33279;SDS011;20403;43.114;12.434;2023-06-14T09:44:01;5.30;;;2.80;;
33279;SDS011;20403;43.114;12.434;2023-06-14T09:46:28;4.70;;;2.92;;
33279;SDS011;20403;43.114;12.434;2023-06-14T09:48:58;5.53;;;2.90;;
33279;SDS011;20403;43.114;12.434;2023-06-14T09:51:24;4.88;;;3.53;;
33279;SDS011;20403;43.114;12.434;2023-06-14T09:53:51;7.80;;;3.30;;
33279;SDS011;20403;43.114;12.434;2023-06-14T09:56:32;10.40;;;4.28;;
33279;SDS011;20403;43.114;12.434;2023-06-14T09:59:03;6.35;;;3.13;;
33279;SDS011;20403;43.114;12.434;2023-06-14T10:01:30;6.07;;;3.13;;
33279;SDS011;20403;43.114;12.434;2023-06-14T10:04:06;9.45;;;2.83;;
33279;SDS011;20403;43.114;12.434;2023-06-14T10:06:32;7.32;;;2.72;;
33279;SDS011;20403;43.114;12.434;2023-06-14T10:09:02;6.60;;;3.40;;
33279;SDS011;20403;43.114;12.434;2023-06-14T10:11:29;5.05;;;2.80;;
33279;SDS011;20403;43.114;12.434;2023-06-14T10:13:55;5.43;;;2.95;;
33279;SDS011;20403;43.114;12.434;2023-06-14T10:16:30;5.70;;;3.00;;
33279;SDS011;20403;43.114;12.434;2023-06-14T10:24:38;4.70;;;2.58;;
33279;SDS011;20403;43.114;12.434;2023-06-14T10:27:07;4.65;;;2.42;;
33279;SDS011;20403;43.114;12.434;2023-06-14T10:32:22;4.00;;;2.60;;
33279;SDS011;20403;43.114;12.434;2023-06-14T10:34:56;3.13;;;2.13;;
33279;SDS011;20403;43.114;12.434;2023-06-14T10:37:22;6.40;;;2.90;;
33279;SDS011;20403;43.114;12.434;2023-06-14T10:39:49;5.55;;;2.60;;
33279;SDS011;20403;43.114;12.434;2023-06-14T10:42:15;5.80;;;2.42;;
33279;SDS011;20403;43.114;12.434;2023-06-14T10:44:50;6.47;;;2.10;;
33279;SDS011;20403;43.114;12.434;2023-06-14T10:47:25;5.97;;;2.72;;
33279;SDS011;20403;43.114;12.434;2023-06-14T10:52:24;7.60;;;2.53;;
33279;SDS011;20403;43.114;12.434;2023-06-14T10:57:31;11.73;;;2.90;;
33279;SDS011;20403;43.114;12.434;2023-06-14T10:59:59;6.47;;;2.75;;
33279;SDS011;20403;43.114;12.434;2023-06-14T11:05:10;8.35;;;2.83;;
33279;SDS011;20403;43.114;12.434;2023-06-14T11:10:32;5.97;;;3.00;;
33279;SDS011;20403;43.114;12.434;2023-06-14T11:13:08;9.50;;;2.70;;
33279;SDS011;20403;43.114;12.434;2023-06-14T11:15:34;6.65;;;2.25;;
33279;SDS011;20403;43.114;12.434;2023-06-14T11:18:05;10.80;;;2.88;;
33279;SDS011;20403;43.114;12.434;2023-06-14T11:20:32;3.60;;;2.53;;
33279;SDS011;20403;43.114;12.434;2023-06-14T11:22:59;3.78;;;2.70;;
33279;SDS011;20403;43.114;12.434;2023-06-14T11:25:25;4.72;;;2.47;;
33279;SDS011;20403;43.114;12.434;2023-06-14T11:27:53;4.90;;;2.47;;
33279;SDS011;20403;43.114;12.434;2023-06-14T11:30:18;3.53;;;2.47;;
33279;SDS011;20403;43.114;12.434;2023-06-14T11:32:51;3.90;;;2.65;;
33279;SDS011;20403;43.114;12.434;2023-06-14T11:35:18;8.82;;;3.20;;
33279;SDS011;20403;43.114;12.434;2023-06-14T11:37:47;7.13;;;3.28;;
33279;SDS011;20403;43.114;12.434;2023-06-14T11:40:14;11.30;;;3.72;;
33279;SDS011;20403;43.114;12.434;2023-06-14T11:42:40;9.75;;;4.65;;
33279;SDS011;20403;43.114;12.434;2023-06-14T11:45:10;11.93;;;5.50;;
33279;SDS011;20403;43.114;12.434;2023-06-14T11:47:36;13.07;;;4.30;;
33279;SDS011;20403;43.114;12.434;2023-06-14T11:50:04;16.45;;;4.38;;
33279;SDS011;20403;43.114;12.434;2023-06-14T11:52:32;9.95;;;3.35;;
33279;SDS011;20403;43.114;12.434;2023-06-14T11:54:57;15.20;;;3.83;;
33279;SDS011;20403;43.114;12.434;2023-06-14T11:57:23;13.70;;;3.55;;
33279;SDS011;20403;43.114;12.434;2023-06-14T11:59:49;10.45;;;3.60;;
33279;SDS011;20403;43.114;12.434;2023-06-14T12:02:18;12.75;;;3.38;;
33279;SDS011;20403;43.114;12.434;2023-06-14T12:04:48;10.25;;;3.03;;
33279;SDS011;20403;43.114;12.434;2023-06-14T12:07:14;6.15;;;3.42;;
33279;SDS011;20403;43.114;12.434;2023-06-14T12:09:42;7.55;;;2.75;;
33279;SDS011;20403;43.114;12.434;2023-06-14T12:12:34;9.48;;;3.00;;
33279;SDS011;20403;43.114;12.434;2023-06-14T12:15:02;6.60;;;2.30;;
33279;SDS011;20403;43.114;12.434;2023-06-14T12:17:39;6.60;;;2.58;;
33279;SDS011;20403;43.114;12.434;2023-06-14T12:20:13;6.47;;;2.20;;
33279;SDS011;20403;43.114;12.434;2023-06-14T12:22:47;5.82;;;2.20;;
33279;SDS011;20403;43.114;12.434;2023-06-14T12:25:26;4.22;;;2.22;;
33279;SDS011;20403;43.114;12.434;2023-06-14T12:28:03;7.93;;;2.60;;
33279;SDS011;20403;43.114;12.434;2023-06-14T12:30:30;5.10;;;2.20;;
33279;SDS011;20403;43.114;12.434;2023-06-14T12:32:56;5.90;;;2.75;;
33279;SDS011;20403;43.114;12.434;2023-06-14T12:35:21;6.88;;;2.63;;
33279;SDS011;20403;43.114;12.434;2023-06-14T12:37:47;6.82;;;2.90;;
33279;SDS011;20403;43.114;12.434;2023-06-14T12:40:13;6.90;;;2.90;;
33279;SDS011;20403;43.114;12.434;2023-06-14T12:42:39;6.20;;;3.03;;
33279;SDS011;20403;43.114;12.434;2023-06-14T12:45:05;4.03;;;2.50;;
33279;SDS011;20403;43.114;12.434;2023-06-14T12:47:31;5.53;;;2.63;;
33279;SDS011;20403;43.114;12.434;2023-06-14T12:49:56;8.30;;;2.22;;
33279;SDS011;20403;43.114;12.434;2023-06-14T12:52:22;6.75;;;2.67;;
33279;SDS011;20403;43.114;12.434;2023-06-14T12:54:47;4.75;;;2.40;;
33279;SDS011;20403;43.114;12.434;2023-06-14T12:57:12;7.78;;;2.75;;
33279;SDS011;20403;43.114;12.434;2023-06-14T12:59:38;4.57;;;2.28;;
33279;SDS011;20403;43.114;12.434;2023-06-14T13:02:36;4.20;;;2.08;;
33279;SDS011;20403;43.114;12.434;2023-06-14T13:04:55;10.30;;;2.20;;
33279;SDS011;20403;43.114;12.434;2023-06-14T13:07:22;3.38;;;1.95;;
33279;SDS011;20403;43.114;12.434;2023-06-14T13:09:47;3.60;;;2.25;;
33279;SDS011;20403;43.114;12.434;2023-06-14T13:12:12;4.25;;;2.33;;
33279;SDS011;20403;43.114;12.434;2023-06-14T13:14:38;3.03;;;1.60;;
33279;SDS011;20403;43.114;12.434;2023-06-14T13:17:06;4.72;;;1.85;;
33279;SDS011;20403;43.114;12.434;2023-06-14T13:19:33;3.65;;;2.00;;
33279;SDS011;20403;43.114;12.434;2023-06-14T13:21:58;5.22;;;2.17;;
33279;SDS011;20403;43.114;12.434;2023-06-14T13:24:23;5.32;;;2.35;;
33279;SDS011;20403;43.114;12.434;2023-06-14T13:26:49;3.90;;;1.52;;
33279;SDS011;20403;43.114;12.434;2023-06-14T13:29:14;3.22;;;1.73;;
33279;SDS011;20403;43.114;12.434;2023-06-14T13:31:40;9.45;;;1.83;;
33279;SDS011;20403;43.114;12.434;2023-06-14T13:34:05;5.50;;;1.73;;
33279;SDS011;20403;43.114;12.434;2023-06-14T13:36:31;3.42;;;1.50;;
33279;SDS011;20403;43.114;12.434;2023-06-14T13:38:56;5.68;;;1.80;;
33279;SDS011;20403;43.114;12.434;2023-06-14T13:41:23;3.83;;;2.03;;
33279;SDS011;20403;43.114;12.434;2023-06-14T13:43:56;2.90;;;1.75;;
33279;SDS011;20403;43.114;12.434;2023-06-14T13:46:21;3.70;;;2.00;;
33279;SDS011;20403;43.114;12.434;2023-06-14T13:48:47;3.45;;;1.92;;
33279;SDS011;20403;43.114;12.434;2023-06-14T13:51:12;4.05;;;1.85;;
33279;SDS011;20403;43.114;12.434;2023-06-14T13:53:38;4.85;;;1.95;;
33279;SDS011;20403;43.114;12.434;2023-06-14T13:56:04;4.32;;;1.90;;
33279;SDS011;20403;43.114;12.434;2023-06-14T13:58:29;3.80;;;1.70;;
33279;SDS011;20403;43.114;12.434;2023-06-14T14:00:55;3.85;;;1.75;;
33279;SDS011;20403;43.114;12.434;2023-06-14T14:03:20;2.75;;;1.70;;
33279;SDS011;20403;43.114;12.434;2023-06-14T14:05:46;1.95;;;1.75;;
33279;SDS011;20403;43.114;12.434;2023-06-14T14:08:11;7.03;;;2.50;;
33279;SDS011;20403;43.114;12.434;2023-06-14T14:10:37;4.07;;;1.88;;
33279;SDS011;20403;43.114;12.434;2023-06-14T14:13:03;4.43;;;1.92;;
33279;SDS011;20403;43.114;12.434;2023-06-14T14:15:29;2.97;;;1.85;;
33279;SDS011;20403;43.114;12.434;2023-06-14T14:17:55;3.58;;;1.50;;
33279;SDS011;20403;43.114;12.434;2023-06-14T14:20:22;5.07;;;1.77;;
33279;SDS011;20403;43.114;12.434;2023-06-14T14:22:48;4.78;;;2.20;;
33279;SDS011;20403;43.114;12.434;2023-06-14T14:25:13;4.40;;;1.85;;
33279;SDS011;20403;43.114;12.434;2023-06-14T14:27:39;4.45;;;1.88;;
33279;SDS011;20403;43.114;12.434;2023-06-14T14:30:05;3.72;;;1.90;;
33279;SDS011;20403;43.114;12.434;2023-06-14T14:32:31;6.38;;;2.10;;
33279;SDS011;20403;43.114;12.434;2023-06-14T14:34:56;4.15;;;1.95;;
33279;SDS011;20403;43.114;12.434;2023-06-14T14:37:21;5.10;;;1.52;;
33279;SDS011;20403;43.114;12.434;2023-06-14T14:39:47;3.08;;;1.58;;
33279;SDS011;20403;43.114;12.434;2023-06-14T14:42:12;5.38;;;1.30;;
33279;SDS011;20403;43.114;12.434;2023-06-14T14:44:38;1.95;;;1.30;;
33279;SDS011;20403;43.114;12.434;2023-06-14T14:47:04;2.20;;;1.52;;
33279;SDS011;20403;43.114;12.434;2023-06-14T14:49:30;4.68;;;1.67;;
33279;SDS011;20403;43.114;12.434;2023-06-14T14:51:58;4.32;;;1.88;;
33279;SDS011;20403;43.114;12.434;2023-06-14T14:54:24;7.78;;;1.95;;
33279;SDS011;20403;43.114;12.434;2023-06-14T14:56:50;4.13;;;1.55;;